sensor_id;sensor_type;location;lat;lon;timestamp;P1;durP1;ratioP1;P2;durP2;ratioP2
20639;SDS011;10479;53.524;9.846;2022-08-03T00:01:15;9.15;;;4.93;;
20639;SDS011;10479;53.524;9.846;2022-08-03T00:03:41;6.40;;;4.75;;
20639;SDS011;10479;53.524;9.846;2022-08-03T00:06:07;5.60;;;4.50;;
20639;SDS011;10479;53.524;9.846;2022-08-03T00:08:32;8.45;;;4.55;;
20639;SDS011;10479;53.524;9.846;2022-08-03T00:10:57;6.30;;;4.65;;
20639;SDS011;10479;53.524;9.846;2022-08-03T00:13:25;8.77;;;5.15;;
20639;SDS011;10479;53.524;9.846;2022-08-03T00:15:50;7.40;;;4.93;;
20639;SDS011;10479;53.524;9.846;2022-08-03T00:18:16;8.13;;;5.38;;
20639;SDS011;10479;53.524;9.846;2022-08-03T00:20:42;8.32;;;5.45;;
20639;SDS011;10479;53.524;9.846;2022-08-03T00:23:08;6.57;;;5.50;;
20639;SDS011;10479;53.524;9.846;2022-08-03T00:25:34;6.30;;;5.25;;
20639;SDS011;10479;53.524;9.846;2022-08-03T00:28:00;7.82;;;5.10;;
20639;SDS011;10479;53.524;9.846;2022-08-03T00:30:26;8.25;;;4.82;;
20639;SDS011;10479;53.524;9.846;2022-08-03T00:32:52;7.80;;;5.35;;
20639;SDS011;10479;53.524;9.846;2022-08-03T00:35:18;7.30;;;4.95;;
20639;SDS011;10479;53.524;9.846;2022-08-03T00:37:43;7.43;;;4.82;;
20639;SDS011;10479;53.524;9.846;2022-08-03T00:40:13;7.68;;;4.82;;
20639;SDS011;10479;53.524;9.846;2022-08-03T00:42:49;7.65;;;4.70;;
20639;SDS011;10479;53.524;9.846;2022-08-03T00:45:25;7.97;;;4.90;;
20639;SDS011;10479;53.524;9.846;2022-08-03T00:47:52;6.10;;;4.40;;
20639;SDS011;10479;53.524;9.846;2022-08-03T00:50:20;6.53;;;4.38;;
20639;SDS011;10479;53.524;9.846;2022-08-03T00:52:50;7.95;;;5.20;;
20639;SDS011;10479;53.524;9.846;2022-08-03T00:55:17;10.27;;;5.32;;
20639;SDS011;10479;53.524;9.846;2022-08-03T00:57:42;9.02;;;5.45;;
20639;SDS011;10479;53.524;9.846;2022-08-03T01:00:09;8.98;;;5.78;;
20639;SDS011;10479;53.524;9.846;2022-08-03T01:02:36;8.70;;;5.15;;
20639;SDS011;10479;53.524;9.846;2022-08-03T01:05:02;9.95;;;5.60;;
20639;SDS011;10479;53.524;9.846;2022-08-03T01:07:40;17.33;;;6.53;;
20639;SDS011;10479;53.524;9.846;2022-08-03T01:13:00;11.45;;;5.85;;
20639;SDS011;10479;53.524;9.846;2022-08-03T01:15:36;10.53;;;5.47;;
20639;SDS011;10479;53.524;9.846;2022-08-03T01:18:05;7.22;;;5.32;;
20639;SDS011;10479;53.524;9.846;2022-08-03T01:20:35;7.95;;;5.10;;
20639;SDS011;10479;53.524;9.846;2022-08-03T01:28:53;7.53;;;5.35;;
20639;SDS011;10479;53.524;9.846;2022-08-03T01:31:38;6.75;;;5.10;;
20639;SDS011;10479;53.524;9.846;2022-08-03T01:34:08;9.35;;;6.00;;
20639;SDS011;10479;53.524;9.846;2022-08-03T01:36:41;7.55;;;5.65;;
20639;SDS011;10479;53.524;9.846;2022-08-03T01:39:08;11.73;;;5.53;;
20639;SDS011;10479;53.524;9.846;2022-08-03T01:41:43;9.80;;;6.80;;
20639;SDS011;10479;53.524;9.846;2022-08-03T01:44:12;9.65;;;6.43;;
20639;SDS011;10479;53.524;9.846;2022-08-03T01:46:39;10.00;;;6.88;;
20639;SDS011;10479;53.524;9.846;2022-08-03T01:49:06;7.25;;;5.82;;
20639;SDS011;10479;53.524;9.846;2022-08-03T01:51:32;8.05;;;5.25;;
20639;SDS011;10479;53.524;9.846;2022-08-03T01:53:58;9.57;;;6.30;;
20639;SDS011;10479;53.524;9.846;2022-08-03T01:56:24;7.70;;;6.25;;
20639;SDS011;10479;53.524;9.846;2022-08-03T01:58:51;9.18;;;5.88;;
20639;SDS011;10479;53.524;9.846;2022-08-03T02:01:17;10.27;;;5.45;;
20639;SDS011;10479;53.524;9.846;2022-08-03T02:03:45;8.55;;;5.53;;
20639;SDS011;10479;53.524;9.846;2022-08-03T02:06:11;9.15;;;6.15;;
20639;SDS011;10479;53.524;9.846;2022-08-03T02:08:40;10.55;;;7.18;;
20639;SDS011;10479;53.524;9.846;2022-08-03T02:11:07;10.48;;;6.95;;
20639;SDS011;10479;53.524;9.846;2022-08-03T02:13:33;12.25;;;6.68;;
20639;SDS011;10479;53.524;9.846;2022-08-03T02:16:02;8.98;;;6.00;;
20639;SDS011;10479;53.524;9.846;2022-08-03T02:18:29;10.35;;;6.72;;
20639;SDS011;10479;53.524;9.846;2022-08-03T02:20:56;8.77;;;6.43;;
20639;SDS011;10479;53.524;9.846;2022-08-03T02:23:25;9.02;;;7.05;;
20639;SDS011;10479;53.524;9.846;2022-08-03T02:25:53;9.20;;;6.20;;
20639;SDS011;10479;53.524;9.846;2022-08-03T02:28:25;6.97;;;5.60;;
20639;SDS011;10479;53.524;9.846;2022-08-03T02:30:54;9.20;;;6.57;;
20639;SDS011;10479;53.524;9.846;2022-08-03T02:33:25;7.78;;;5.75;;
20639;SDS011;10479;53.524;9.846;2022-08-03T02:35:52;8.50;;;6.78;;
20639;SDS011;10479;53.524;9.846;2022-08-03T02:38:18;8.25;;;6.05;;
20639;SDS011;10479;53.524;9.846;2022-08-03T02:40:45;10.75;;;6.15;;
20639;SDS011;10479;53.524;9.846;2022-08-03T02:43:14;8.10;;;5.80;;
20639;SDS011;10479;53.524;9.846;2022-08-03T02:45:45;8.15;;;6.40;;
20639;SDS011;10479;53.524;9.846;2022-08-03T02:48:14;9.65;;;6.50;;
20639;SDS011;10479;53.524;9.846;2022-08-03T02:50:41;10.38;;;5.78;;
20639;SDS011;10479;53.524;9.846;2022-08-03T02:53:10;8.23;;;6.00;;
20639;SDS011;10479;53.524;9.846;2022-08-03T02:55:36;14.40;;;6.60;;
20639;SDS011;10479;53.524;9.846;2022-08-03T02:58:03;9.85;;;6.03;;
20639;SDS011;10479;53.524;9.846;2022-08-03T03:00:32;10.15;;;7.63;;
20639;SDS011;10479;53.524;9.846;2022-08-03T03:02:58;9.98;;;7.85;;
20639;SDS011;10479;53.524;9.846;2022-08-03T03:05:25;11.60;;;7.43;;
20639;SDS011;10479;53.524;9.846;2022-08-03T03:07:50;16.00;;;7.53;;
20639;SDS011;10479;53.524;9.846;2022-08-03T03:10:16;11.43;;;6.50;;
20639;SDS011;10479;53.524;9.846;2022-08-03T03:12:42;9.60;;;6.68;;
20639;SDS011;10479;53.524;9.846;2022-08-03T03:15:08;10.55;;;6.68;;
20639;SDS011;10479;53.524;9.846;2022-08-03T03:17:34;14.27;;;6.40;;
20639;SDS011;10479;53.524;9.846;2022-08-03T03:20:01;8.10;;;6.63;;
20639;SDS011;10479;53.524;9.846;2022-08-03T03:22:28;7.25;;;6.28;;
20639;SDS011;10479;53.524;9.846;2022-08-03T03:24:54;11.88;;;7.25;;
20639;SDS011;10479;53.524;9.846;2022-08-03T03:27:20;11.15;;;7.80;;
20639;SDS011;10479;53.524;9.846;2022-08-03T03:29:46;9.38;;;6.85;;
20639;SDS011;10479;53.524;9.846;2022-08-03T03:32:12;9.40;;;6.72;;
20639;SDS011;10479;53.524;9.846;2022-08-03T03:34:38;10.00;;;7.57;;
20639;SDS011;10479;53.524;9.846;2022-08-03T03:37:03;11.18;;;7.82;;
20639;SDS011;10479;53.524;9.846;2022-08-03T03:39:48;11.70;;;7.70;;
20639;SDS011;10479;53.524;9.846;2022-08-03T03:42:13;8.95;;;7.18;;
20639;SDS011;10479;53.524;9.846;2022-08-03T03:44:39;10.40;;;7.80;;
20639;SDS011;10479;53.524;9.846;2022-08-03T03:47:04;8.80;;;7.55;;
20639;SDS011;10479;53.524;9.846;2022-08-03T03:49:30;14.68;;;8.23;;
20639;SDS011;10479;53.524;9.846;2022-08-03T03:51:56;10.23;;;8.60;;
20639;SDS011;10479;53.524;9.846;2022-08-03T03:54:22;9.40;;;7.88;;
20639;SDS011;10479;53.524;9.846;2022-08-03T03:56:47;11.90;;;7.47;;
20639;SDS011;10479;53.524;9.846;2022-08-03T03:59:13;10.00;;;7.18;;
20639;SDS011;10479;53.524;9.846;2022-08-03T04:01:38;7.90;;;5.95;;
20639;SDS011;10479;53.524;9.846;2022-08-03T04:04:04;8.60;;;6.07;;
20639;SDS011;10479;53.524;9.846;2022-08-03T04:06:47;10.05;;;6.60;;
20639;SDS011;10479;53.524;9.846;2022-08-03T04:09:32;10.35;;;6.22;;
20639;SDS011;10479;53.524;9.846;2022-08-03T04:12:20;8.68;;;6.22;;
20639;SDS011;10479;53.524;9.846;2022-08-03T04:14:47;11.93;;;7.75;;
20639;SDS011;10479;53.524;9.846;2022-08-03T04:17:13;9.30;;;7.18;;
20639;SDS011;10479;53.524;9.846;2022-08-03T04:19:40;13.73;;;9.25;;
20639;SDS011;10479;53.524;9.846;2022-08-03T04:22:09;8.60;;;6.90;;
20639;SDS011;10479;53.524;9.846;2022-08-03T04:24:47;8.98;;;7.40;;
20639;SDS011;10479;53.524;9.846;2022-08-03T04:27:15;12.88;;;7.97;;
20639;SDS011;10479;53.524;9.846;2022-08-03T04:29:45;14.43;;;8.70;;
20639;SDS011;10479;53.524;9.846;2022-08-03T04:32:12;11.15;;;8.50;;
20639;SDS011;10479;53.524;9.846;2022-08-03T04:34:38;12.50;;;7.68;;
20639;SDS011;10479;53.524;9.846;2022-08-03T04:37:13;9.73;;;7.45;;
20639;SDS011;10479;53.524;9.846;2022-08-03T04:39:54;10.13;;;7.38;;
20639;SDS011;10479;53.524;9.846;2022-08-03T04:42:21;10.65;;;7.05;;
20639;SDS011;10479;53.524;9.846;2022-08-03T04:44:47;12.77;;;7.18;;
20639;SDS011;10479;53.524;9.846;2022-08-03T04:47:13;9.32;;;6.97;;
20639;SDS011;10479;53.524;9.846;2022-08-03T04:49:39;10.48;;;7.28;;
20639;SDS011;10479;53.524;9.846;2022-08-03T04:52:06;9.93;;;7.47;;
20639;SDS011;10479;53.524;9.846;2022-08-03T04:54:39;13.00;;;7.50;;
20639;SDS011;10479;53.524;9.846;2022-08-03T04:57:06;11.18;;;7.70;;
20639;SDS011;10479;53.524;9.846;2022-08-03T04:59:31;12.20;;;7.75;;
20639;SDS011;10479;53.524;9.846;2022-08-03T05:01:57;11.57;;;7.97;;
20639;SDS011;10479;53.524;9.846;2022-08-03T05:04:22;10.15;;;7.93;;
20639;SDS011;10479;53.524;9.846;2022-08-03T05:06:48;9.93;;;8.10;;
20639;SDS011;10479;53.524;9.846;2022-08-03T05:09:13;9.65;;;7.30;;
20639;SDS011;10479;53.524;9.846;2022-08-03T05:11:38;11.65;;;7.30;;
20639;SDS011;10479;53.524;9.846;2022-08-03T05:14:04;9.23;;;6.65;;
20639;SDS011;10479;53.524;9.846;2022-08-03T05:16:29;10.80;;;7.60;;
20639;SDS011;10479;53.524;9.846;2022-08-03T05:18:55;10.20;;;7.20;;
20639;SDS011;10479;53.524;9.846;2022-08-03T05:21:20;11.88;;;6.53;;
20639;SDS011;10479;53.524;9.846;2022-08-03T05:23:46;8.77;;;6.32;;
20639;SDS011;10479;53.524;9.846;2022-08-03T05:26:11;8.57;;;5.93;;
20639;SDS011;10479;53.524;9.846;2022-08-03T05:28:37;16.95;;;6.32;;
20639;SDS011;10479;53.524;9.846;2022-08-03T05:31:02;8.57;;;6.53;;
20639;SDS011;10479;53.524;9.846;2022-08-03T05:33:28;8.35;;;6.40;;
20639;SDS011;10479;53.524;9.846;2022-08-03T05:35:54;10.52;;;5.85;;
20639;SDS011;10479;53.524;9.846;2022-08-03T05:38:19;8.85;;;5.93;;
20639;SDS011;10479;53.524;9.846;2022-08-03T05:40:44;8.63;;;5.82;;
20639;SDS011;10479;53.524;9.846;2022-08-03T05:43:12;8.57;;;5.70;;
20639;SDS011;10479;53.524;9.846;2022-08-03T05:45:37;8.18;;;4.95;;
20639;SDS011;10479;53.524;9.846;2022-08-03T05:48:04;12.40;;;5.28;;
20639;SDS011;10479;53.524;9.846;2022-08-03T05:50:30;8.27;;;4.35;;
20639;SDS011;10479;53.524;9.846;2022-08-03T05:52:56;8.45;;;4.57;;
20639;SDS011;10479;53.524;9.846;2022-08-03T05:55:22;6.55;;;4.40;;
20639;SDS011;10479;53.524;9.846;2022-08-03T05:57:47;6.03;;;4.43;;
20639;SDS011;10479;53.524;9.846;2022-08-03T06:00:13;15.40;;;5.55;;
20639;SDS011;10479;53.524;9.846;2022-08-03T06:02:39;7.03;;;3.97;;
20639;SDS011;10479;53.524;9.846;2022-08-03T06:05:04;6.95;;;4.47;;
20639;SDS011;10479;53.524;9.846;2022-08-03T06:07:30;8.43;;;4.32;;
20639;SDS011;10479;53.524;9.846;2022-08-03T06:09:56;8.63;;;4.55;;
20639;SDS011;10479;53.524;9.846;2022-08-03T06:12:21;6.72;;;4.22;;
20639;SDS011;10479;53.524;9.846;2022-08-03T06:14:47;8.13;;;4.10;;
20639;SDS011;10479;53.524;9.846;2022-08-03T06:17:12;8.93;;;3.65;;
20639;SDS011;10479;53.524;9.846;2022-08-03T06:19:38;11.25;;;4.30;;
20639;SDS011;10479;53.524;9.846;2022-08-03T06:22:03;7.75;;;3.85;;
20639;SDS011;10479;53.524;9.846;2022-08-03T06:24:29;5.50;;;3.80;;
20639;SDS011;10479;53.524;9.846;2022-08-03T06:26:54;6.07;;;3.50;;
20639;SDS011;10479;53.524;9.846;2022-08-03T06:29:20;4.85;;;3.50;;
20639;SDS011;10479;53.524;9.846;2022-08-03T06:31:46;10.05;;;3.55;;
20639;SDS011;10479;53.524;9.846;2022-08-03T06:34:15;8.10;;;3.58;;
20639;SDS011;10479;53.524;9.846;2022-08-03T06:36:40;7.15;;;3.53;;
20639;SDS011;10479;53.524;9.846;2022-08-03T06:39:06;7.57;;;3.28;;
20639;SDS011;10479;53.524;9.846;2022-08-03T06:41:31;5.13;;;3.13;;
20639;SDS011;10479;53.524;9.846;2022-08-03T06:43:57;9.07;;;3.42;;
20639;SDS011;10479;53.524;9.846;2022-08-03T06:46:23;5.65;;;3.17;;
20639;SDS011;10479;53.524;9.846;2022-08-03T06:48:48;7.93;;;2.97;;
20639;SDS011;10479;53.524;9.846;2022-08-03T06:51:14;4.65;;;3.05;;
20639;SDS011;10479;53.524;9.846;2022-08-03T06:53:39;7.63;;;3.33;;
20639;SDS011;10479;53.524;9.846;2022-08-03T06:56:05;4.20;;;2.90;;
20639;SDS011;10479;53.524;9.846;2022-08-03T06:58:31;5.78;;;2.97;;
20639;SDS011;10479;53.524;9.846;2022-08-03T07:00:57;5.55;;;2.78;;
20639;SDS011;10479;53.524;9.846;2022-08-03T07:03:23;6.55;;;3.22;;
20639;SDS011;10479;53.524;9.846;2022-08-03T07:05:48;8.02;;;2.92;;
20639;SDS011;10479;53.524;9.846;2022-08-03T07:08:15;8.13;;;2.80;;
20639;SDS011;10479;53.524;9.846;2022-08-03T07:10:41;9.32;;;3.17;;
20639;SDS011;10479;53.524;9.846;2022-08-03T07:13:09;11.55;;;3.40;;
20639;SDS011;10479;53.524;9.846;2022-08-03T07:15:35;3.85;;;2.45;;
20639;SDS011;10479;53.524;9.846;2022-08-03T07:18:03;6.32;;;2.70;;
20639;SDS011;10479;53.524;9.846;2022-08-03T07:20:28;6.32;;;2.90;;
20639;SDS011;10479;53.524;9.846;2022-08-03T07:22:54;4.78;;;2.78;;
20639;SDS011;10479;53.524;9.846;2022-08-03T07:25:19;8.23;;;2.70;;
20639;SDS011;10479;53.524;9.846;2022-08-03T07:27:45;6.18;;;2.55;;
20639;SDS011;10479;53.524;9.846;2022-08-03T07:30:12;7.13;;;2.85;;
20639;SDS011;10479;53.524;9.846;2022-08-03T07:32:38;7.10;;;3.38;;
20639;SDS011;10479;53.524;9.846;2022-08-03T07:35:04;5.07;;;2.60;;
20639;SDS011;10479;53.524;9.846;2022-08-03T07:37:31;5.38;;;2.75;;
20639;SDS011;10479;53.524;9.846;2022-08-03T07:39:57;11.43;;;2.72;;
20639;SDS011;10479;53.524;9.846;2022-08-03T07:42:23;4.13;;;2.63;;
20639;SDS011;10479;53.524;9.846;2022-08-03T07:44:49;6.75;;;2.72;;
20639;SDS011;10479;53.524;9.846;2022-08-03T07:47:18;8.95;;;2.88;;
20639;SDS011;10479;53.524;9.846;2022-08-03T07:49:45;7.05;;;2.40;;
20639;SDS011;10479;53.524;9.846;2022-08-03T07:52:10;5.55;;;2.53;;
20639;SDS011;10479;53.524;9.846;2022-08-03T07:54:54;6.82;;;2.50;;
20639;SDS011;10479;53.524;9.846;2022-08-03T07:57:22;7.07;;;2.60;;
20639;SDS011;10479;53.524;9.846;2022-08-03T07:59:48;5.45;;;2.35;;
20639;SDS011;10479;53.524;9.846;2022-08-03T08:02:14;7.18;;;2.42;;
20639;SDS011;10479;53.524;9.846;2022-08-03T08:04:39;6.13;;;2.30;;
20639;SDS011;10479;53.524;9.846;2022-08-03T08:07:05;6.25;;;2.30;;
20639;SDS011;10479;53.524;9.846;2022-08-03T08:09:31;7.82;;;2.53;;
20639;SDS011;10479;53.524;9.846;2022-08-03T08:11:58;5.80;;;2.35;;
20639;SDS011;10479;53.524;9.846;2022-08-03T08:14:23;7.18;;;2.38;;
20639;SDS011;10479;53.524;9.846;2022-08-03T08:16:49;6.32;;;2.22;;
20639;SDS011;10479;53.524;9.846;2022-08-03T08:19:14;3.60;;;2.13;;
20639;SDS011;10479;53.524;9.846;2022-08-03T08:21:41;7.00;;;2.08;;
20639;SDS011;10479;53.524;9.846;2022-08-03T08:24:07;5.22;;;2.30;;
20639;SDS011;10479;53.524;9.846;2022-08-03T08:26:33;4.88;;;2.42;;
20639;SDS011;10479;53.524;9.846;2022-08-03T08:28:58;5.85;;;2.10;;
20639;SDS011;10479;53.524;9.846;2022-08-03T08:31:24;4.47;;;2.40;;
20639;SDS011;10479;53.524;9.846;2022-08-03T08:33:49;4.88;;;2.08;;
20639;SDS011;10479;53.524;9.846;2022-08-03T08:36:14;5.90;;;2.38;;
20639;SDS011;10479;53.524;9.846;2022-08-03T08:38:41;6.07;;;2.13;;
20639;SDS011;10479;53.524;9.846;2022-08-03T08:41:08;5.53;;;2.25;;
20639;SDS011;10479;53.524;9.846;2022-08-03T08:43:35;6.82;;;2.10;;
20639;SDS011;10479;53.524;9.846;2022-08-03T08:46:01;7.28;;;2.00;;
20639;SDS011;10479;53.524;9.846;2022-08-03T08:48:27;3.65;;;1.73;;
20639;SDS011;10479;53.524;9.846;2022-08-03T08:50:53;6.38;;;2.30;;
20639;SDS011;10479;53.524;9.846;2022-08-03T08:53:20;7.43;;;2.17;;
20639;SDS011;10479;53.524;9.846;2022-08-03T08:55:45;6.25;;;1.83;;
20639;SDS011;10479;53.524;9.846;2022-08-03T08:58:11;7.03;;;1.98;;
20639;SDS011;10479;53.524;9.846;2022-08-03T09:00:38;5.20;;;2.03;;
20639;SDS011;10479;53.524;9.846;2022-08-03T09:03:03;7.45;;;1.83;;
20639;SDS011;10479;53.524;9.846;2022-08-03T09:05:29;8.60;;;1.92;;
20639;SDS011;10479;53.524;9.846;2022-08-03T09:07:56;8.40;;;2.35;;
20639;SDS011;10479;53.524;9.846;2022-08-03T09:10:22;5.25;;;2.15;;
20639;SDS011;10479;53.524;9.846;2022-08-03T09:12:48;5.75;;;2.03;;
20639;SDS011;10479;53.524;9.846;2022-08-03T09:15:31;6.35;;;1.90;;
20639;SDS011;10479;53.524;9.846;2022-08-03T09:17:58;5.80;;;2.10;;
20639;SDS011;10479;53.524;9.846;2022-08-03T09:20:26;7.88;;;2.05;;
20639;SDS011;10479;53.524;9.846;2022-08-03T09:25:29;7.20;;;1.85;;
20639;SDS011;10479;53.524;9.846;2022-08-03T09:28:02;6.00;;;1.83;;
20639;SDS011;10479;53.524;9.846;2022-08-03T09:30:29;8.43;;;1.83;;
20639;SDS011;10479;53.524;9.846;2022-08-03T09:33:02;3.85;;;1.65;;
20639;SDS011;10479;53.524;9.846;2022-08-03T09:35:28;10.90;;;1.60;;
20639;SDS011;10479;53.524;9.846;2022-08-03T09:40:34;7.63;;;1.45;;
20639;SDS011;10479;53.524;9.846;2022-08-03T09:43:00;7.13;;;1.73;;
20639;SDS011;10479;53.524;9.846;2022-08-03T09:45:26;7.40;;;1.83;;
20639;SDS011;10479;53.524;9.846;2022-08-03T09:47:56;7.30;;;2.00;;
20639;SDS011;10479;53.524;9.846;2022-08-03T09:50:23;4.15;;;1.50;;
20639;SDS011;10479;53.524;9.846;2022-08-03T09:52:49;5.40;;;1.60;;
20639;SDS011;10479;53.524;9.846;2022-08-03T09:55:15;7.70;;;1.63;;
20639;SDS011;10479;53.524;9.846;2022-08-03T09:57:41;7.00;;;1.60;;
20639;SDS011;10479;53.524;9.846;2022-08-03T10:00:12;11.05;;;1.65;;
20639;SDS011;10479;53.524;9.846;2022-08-03T10:02:41;10.02;;;1.88;;
20639;SDS011;10479;53.524;9.846;2022-08-03T10:05:11;9.18;;;1.98;;
20639;SDS011;10479;53.524;9.846;2022-08-03T10:07:44;5.65;;;1.90;;
20639;SDS011;10479;53.524;9.846;2022-08-03T10:10:11;5.55;;;2.47;;
20639;SDS011;10479;53.524;9.846;2022-08-03T10:12:37;5.60;;;1.65;;
20639;SDS011;10479;53.524;9.846;2022-08-03T10:15:04;7.88;;;2.00;;
20639;SDS011;10479;53.524;9.846;2022-08-03T10:17:30;5.22;;;1.60;;
20639;SDS011;10479;53.524;9.846;2022-08-03T10:19:56;6.50;;;1.52;;
20639;SDS011;10479;53.524;9.846;2022-08-03T10:22:23;3.47;;;1.30;;
20639;SDS011;10479;53.524;9.846;2022-08-03T10:24:52;4.30;;;1.33;;
20639;SDS011;10479;53.524;9.846;2022-08-03T10:27:23;6.15;;;1.92;;
20639;SDS011;10479;53.524;9.846;2022-08-03T10:29:52;7.80;;;1.98;;
20639;SDS011;10479;53.524;9.846;2022-08-03T10:32:28;6.32;;;1.70;;
20639;SDS011;10479;53.524;9.846;2022-08-03T10:35:19;6.30;;;1.40;;
20639;SDS011;10479;53.524;9.846;2022-08-03T10:37:47;7.97;;;1.75;;
20639;SDS011;10479;53.524;9.846;2022-08-03T10:40:18;6.25;;;1.50;;
20639;SDS011;10479;53.524;9.846;2022-08-03T10:42:46;7.40;;;1.50;;
20639;SDS011;10479;53.524;9.846;2022-08-03T10:45:17;7.80;;;2.05;;
20639;SDS011;10479;53.524;9.846;2022-08-03T10:47:47;5.63;;;1.80;;
20639;SDS011;10479;53.524;9.846;2022-08-03T10:50:14;6.35;;;2.03;;
20639;SDS011;10479;53.524;9.846;2022-08-03T10:52:59;6.00;;;1.60;;
20639;SDS011;10479;53.524;9.846;2022-08-03T11:01:16;6.55;;;1.70;;
20639;SDS011;10479;53.524;9.846;2022-08-03T11:06:23;6.57;;;2.20;;
20639;SDS011;10479;53.524;9.846;2022-08-03T11:11:39;7.38;;;1.80;;
20639;SDS011;10479;53.524;9.846;2022-08-03T11:16:47;6.45;;;1.60;;
20639;SDS011;10479;53.524;9.846;2022-08-03T11:19:42;9.48;;;1.83;;
20639;SDS011;10479;53.524;9.846;2022-08-03T11:22:08;8.10;;;1.50;;
20639;SDS011;10479;53.524;9.846;2022-08-03T11:29:38;8.05;;;2.20;;
20639;SDS011;10479;53.524;9.846;2022-08-03T11:43:51;5.28;;;1.80;;
20639;SDS011;10479;53.524;9.846;2022-08-03T11:48:41;7.00;;;1.80;;
20639;SDS011;10479;53.524;9.846;2022-08-03T11:51:23;10.20;;;1.45;;
20639;SDS011;10479;53.524;9.846;2022-08-03T11:53:53;5.90;;;1.40;;
20639;SDS011;10479;53.524;9.846;2022-08-03T11:56:19;8.88;;;1.70;;
20639;SDS011;10479;53.524;9.846;2022-08-03T11:58:48;4.80;;;1.73;;
20639;SDS011;10479;53.524;9.846;2022-08-03T12:01:16;10.82;;;2.03;;
20639;SDS011;10479;53.524;9.846;2022-08-03T12:03:42;7.05;;;1.70;;
20639;SDS011;10479;53.524;9.846;2022-08-03T12:06:08;8.77;;;1.73;;
20639;SDS011;10479;53.524;9.846;2022-08-03T12:08:41;8.73;;;1.60;;
20639;SDS011;10479;53.524;9.846;2022-08-03T12:11:08;4.88;;;1.63;;
20639;SDS011;10479;53.524;9.846;2022-08-03T12:13:40;5.65;;;1.75;;
20639;SDS011;10479;53.524;9.846;2022-08-03T12:16:16;5.93;;;1.80;;
20639;SDS011;10479;53.524;9.846;2022-08-03T12:18:58;7.20;;;1.75;;
20639;SDS011;10479;53.524;9.846;2022-08-03T12:21:25;7.65;;;1.75;;
20639;SDS011;10479;53.524;9.846;2022-08-03T12:23:55;5.82;;;2.00;;
20639;SDS011;10479;53.524;9.846;2022-08-03T12:26:22;10.60;;;1.95;;
20639;SDS011;10479;53.524;9.846;2022-08-03T12:28:48;7.97;;;1.73;;
20639;SDS011;10479;53.524;9.846;2022-08-03T12:31:14;11.18;;;2.22;;
20639;SDS011;10479;53.524;9.846;2022-08-03T12:33:56;7.10;;;1.98;;
20639;SDS011;10479;53.524;9.846;2022-08-03T12:36:22;9.32;;;1.85;;
20639;SDS011;10479;53.524;9.846;2022-08-03T12:38:57;8.25;;;2.70;;
20639;SDS011;10479;53.524;9.846;2022-08-03T12:41:28;7.85;;;1.70;;
20639;SDS011;10479;53.524;9.846;2022-08-03T12:43:55;5.43;;;1.55;;
20639;SDS011;10479;53.524;9.846;2022-08-03T12:46:20;8.50;;;2.17;;
20639;SDS011;10479;53.524;9.846;2022-08-03T12:51:33;11.27;;;1.75;;
20639;SDS011;10479;53.524;9.846;2022-08-03T12:54:03;9.05;;;1.95;;
20639;SDS011;10479;53.524;9.846;2022-08-03T12:56:29;6.32;;;1.70;;
20639;SDS011;10479;53.524;9.846;2022-08-03T12:58:55;6.68;;;1.63;;
20639;SDS011;10479;53.524;9.846;2022-08-03T13:01:21;6.25;;;1.60;;
20639;SDS011;10479;53.524;9.846;2022-08-03T13:03:48;7.22;;;1.90;;
20639;SDS011;10479;53.524;9.846;2022-08-03T13:06:18;4.80;;;1.92;;
20639;SDS011;10479;53.524;9.846;2022-08-03T13:09:02;8.85;;;1.92;;
20639;SDS011;10479;53.524;9.846;2022-08-03T13:11:29;5.28;;;2.03;;
20639;SDS011;10479;53.524;9.846;2022-08-03T13:13:55;4.32;;;1.63;;
20639;SDS011;10479;53.524;9.846;2022-08-03T13:16:21;5.72;;;1.60;;
20639;SDS011;10479;53.524;9.846;2022-08-03T13:18:50;6.03;;;1.63;;
20639;SDS011;10479;53.524;9.846;2022-08-03T13:21:17;6.97;;;1.85;;
20639;SDS011;10479;53.524;9.846;2022-08-03T13:23:43;8.07;;;1.65;;
20639;SDS011;10479;53.524;9.846;2022-08-03T13:26:11;6.30;;;1.70;;
20639;SDS011;10479;53.524;9.846;2022-08-03T13:28:39;6.30;;;1.95;;
20639;SDS011;10479;53.524;9.846;2022-08-03T13:31:05;6.57;;;1.80;;
20639;SDS011;10479;53.524;9.846;2022-08-03T13:33:31;8.18;;;1.90;;
20639;SDS011;10479;53.524;9.846;2022-08-03T13:35:56;6.38;;;1.73;;
20639;SDS011;10479;53.524;9.846;2022-08-03T13:38:22;5.32;;;1.90;;
20639;SDS011;10479;53.524;9.846;2022-08-03T13:40:47;5.47;;;1.67;;
20639;SDS011;10479;53.524;9.846;2022-08-03T13:43:13;7.70;;;1.90;;
20639;SDS011;10479;53.524;9.846;2022-08-03T13:45:38;6.60;;;1.95;;
20639;SDS011;10479;53.524;9.846;2022-08-03T13:48:04;8.85;;;1.80;;
20639;SDS011;10479;53.524;9.846;2022-08-03T13:50:29;5.85;;;1.73;;
20639;SDS011;10479;53.524;9.846;2022-08-03T13:52:55;5.30;;;1.88;;
20639;SDS011;10479;53.524;9.846;2022-08-03T13:55:21;5.13;;;1.77;;
20639;SDS011;10479;53.524;9.846;2022-08-03T13:57:46;5.65;;;1.50;;
20639;SDS011;10479;53.524;9.846;2022-08-03T14:00:12;8.25;;;1.90;;
20639;SDS011;10479;53.524;9.846;2022-08-03T14:02:38;5.63;;;1.90;;
20639;SDS011;10479;53.524;9.846;2022-08-03T14:05:04;8.40;;;2.13;;
20639;SDS011;10479;53.524;9.846;2022-08-03T14:07:29;7.68;;;1.83;;
20639;SDS011;10479;53.524;9.846;2022-08-03T14:09:55;4.95;;;1.58;;
20639;SDS011;10479;53.524;9.846;2022-08-03T14:12:21;8.85;;;1.80;;
20639;SDS011;10479;53.524;9.846;2022-08-03T14:14:48;8.57;;;1.65;;
20639;SDS011;10479;53.524;9.846;2022-08-03T14:17:13;8.20;;;1.70;;
20639;SDS011;10479;53.524;9.846;2022-08-03T14:19:39;8.77;;;1.90;;
20639;SDS011;10479;53.524;9.846;2022-08-03T14:22:04;7.25;;;2.25;;
20639;SDS011;10479;53.524;9.846;2022-08-03T14:24:30;4.93;;;1.77;;
20639;SDS011;10479;53.524;9.846;2022-08-03T14:26:57;11.50;;;2.33;;
20639;SDS011;10479;53.524;9.846;2022-08-03T14:29:22;8.45;;;2.13;;
20639;SDS011;10479;53.524;9.846;2022-08-03T14:31:48;8.18;;;1.95;;
20639;SDS011;10479;53.524;9.846;2022-08-03T14:34:13;6.28;;;2.15;;
20639;SDS011;10479;53.524;9.846;2022-08-03T14:36:39;7.85;;;1.70;;
20639;SDS011;10479;53.524;9.846;2022-08-03T14:39:04;8.85;;;2.00;;
20639;SDS011;10479;53.524;9.846;2022-08-03T14:41:30;6.78;;;1.98;;
20639;SDS011;10479;53.524;9.846;2022-08-03T14:43:55;6.10;;;2.20;;
20639;SDS011;10479;53.524;9.846;2022-08-03T14:46:21;7.57;;;2.45;;
20639;SDS011;10479;53.524;9.846;2022-08-03T14:48:46;5.75;;;2.00;;
20639;SDS011;10479;53.524;9.846;2022-08-03T14:51:12;8.27;;;1.95;;
20639;SDS011;10479;53.524;9.846;2022-08-03T14:53:37;5.75;;;1.88;;
20639;SDS011;10479;53.524;9.846;2022-08-03T14:56:03;6.22;;;1.88;;
20639;SDS011;10479;53.524;9.846;2022-08-03T14:58:28;6.20;;;1.70;;
20639;SDS011;10479;53.524;9.846;2022-08-03T15:00:54;5.45;;;1.90;;
20639;SDS011;10479;53.524;9.846;2022-08-03T15:03:20;6.00;;;1.70;;
20639;SDS011;10479;53.524;9.846;2022-08-03T15:05:50;7.60;;;1.73;;
20639;SDS011;10479;53.524;9.846;2022-08-03T15:08:19;5.72;;;1.70;;
20639;SDS011;10479;53.524;9.846;2022-08-03T15:10:45;4.93;;;1.60;;
20639;SDS011;10479;53.524;9.846;2022-08-03T15:13:12;5.07;;;1.88;;
20639;SDS011;10479;53.524;9.846;2022-08-03T15:15:37;10.77;;;1.75;;
20639;SDS011;10479;53.524;9.846;2022-08-03T15:18:03;7.75;;;2.05;;
20639;SDS011;10479;53.524;9.846;2022-08-03T15:20:28;5.97;;;1.65;;
20639;SDS011;10479;53.524;9.846;2022-08-03T15:22:54;9.35;;;2.05;;
20639;SDS011;10479;53.524;9.846;2022-08-03T15:25:19;9.95;;;1.98;;
20639;SDS011;10479;53.524;9.846;2022-08-03T15:27:45;11.98;;;3.28;;
20639;SDS011;10479;53.524;9.846;2022-08-03T15:30:10;8.57;;;1.83;;
20639;SDS011;10479;53.524;9.846;2022-08-03T15:32:36;6.40;;;1.73;;
20639;SDS011;10479;53.524;9.846;2022-08-03T15:35:02;6.15;;;1.65;;
20639;SDS011;10479;53.524;9.846;2022-08-03T15:37:28;11.30;;;2.20;;